Time;durP1;ratioP1;P1;durP2;ratioP2;P2;SDS_P1;SDS_P2;PMS_P1;PMS_P2;Temp;Humidity;BMP_temperature;BMP_pressure;BME280_temperature;BME280_humidity;BME280_pressure;Samples;Min_cycle;Max_cycle;Signal;HPM_P1;HPM_P2
2024/03/22 00:00:38;;;;;;;38.65;35.67;;;;;;;;;;4921399;29;20445;-93
2024/03/22 00:03:05;;;;;;;36.35;33.60;;;;;;;;;;4940285;29;20020;-93
2024/03/22 00:05:34;;;;;;;41.17;38.40;;;;;;;;;;4948912;29;20055;-92
2024/03/22 00:08:00;;;;;;;44.45;41.28;;;;;;;;;;4951696;29;20031;-90
2024/03/22 00:10:29;;;;;;;39.33;36.63;;;;;;;;;;4946490;28;20036;-93
2024/03/22 00:12:55;;;;;;;36.13;33.22;;;;;;;;;;4958364;28;20047;-89
2024/03/22 00:15:22;;;;;;;36.95;34.08;;;;;;;;;;4955265;28;20036;-93
2024/03/22 00:17:48;;;;;;;39.45;36.60;;;;;;;;;;4939552;29;20035;-91
2024/03/22 00:20:14;;;;;;;38.85;36.08;;;;;;;;;;4940238;29;20098;-93
2024/03/22 00:22:40;;;;;;;41.33;38.17;;;;;;;;;;4936600;29;20062;-93
2024/03/22 00:25:07;;;;;;;39.83;36.97;;;;;;;;;;4937487;29;20043;-94
2024/03/22 00:27:33;;;;;;;40.45;37.33;;;;;;;;;;4920255;29;20028;-91
2024/03/22 00:29:59;;;;;;;40.85;37.67;;;;;;;;;;4920567;29;20034;-94
2024/03/22 00:32:25;;;;;;;44.25;40.90;;;;;;;;;;4920614;29;20055;-90
2024/03/22 00:34:51;;;;;;;44.88;41.42;;;;;;;;;;4920604;29;20229;-91
2024/03/22 00:37:18;;;;;;;41.35;37.97;;;;;;;;;;4920170;29;20031;-91
2024/03/22 00:39:44;;;;;;;39.45;36.45;;;;;;;;;;4941797;28;20054;-90
2024/03/22 00:42:10;;;;;;;36.45;33.75;;;;;;;;;;4947568;28;20014;-90
2024/03/22 00:44:42;;;;;;;47.20;43.67;;;;;;;;;;4941454;28;20027;-90
2024/03/22 00:47:14;;;;;;;37.95;34.63;;;;;;;;;;4936883;29;20044;-94
2024/03/22 00:49:40;;;;;;;37.00;34.30;;;;;;;;;;4920760;29;20023;-91
2024/03/22 00:52:12;;;;;;;34.42;31.67;;;;;;;;;;4929140;29;20126;-91
2024/03/22 00:54:39;;;;;;;37.80;34.78;;;;;;;;;;4920352;29;20119;-92
2024/03/22 00:57:05;;;;;;;42.08;38.92;;;;;;;;;;4919924;29;20122;-92
2024/03/22 00:59:31;;;;;;;40.95;37.95;;;;;;;;;;4924400;29;20039;-90
2024/03/22 01:01:57;;;;;;;47.65;44.35;;;;;;;;;;4939191;29;20038;-92
2024/03/22 01:04:24;;;;;;;43.72;40.22;;;;;;;;;;4939258;29;20472;-91
2024/03/22 01:09:56;;;;;;;41.93;38.63;;;;;;;;;;4956367;29;20054;-92
2024/03/22 01:12:22;;;;;;;49.20;45.42;;;;;;;;;;4935945;29;20095;-91
2024/03/22 01:14:54;;;;;;;38.20;35.15;;;;;;;;;;4933099;29;20027;-91
2024/03/22 01:17:20;;;;;;;45.05;41.92;;;;;;;;;;4939155;29;20027;-92
2024/03/22 01:19:46;;;;;;;48.42;45.08;;;;;;;;;;4939030;29;20404;-93
2024/03/22 01:22:12;;;;;;;41.35;38.33;;;;;;;;;;4936200;29;20035;-91
2024/03/22 01:24:38;;;;;;;41.50;38.55;;;;;;;;;;4921823;29;20035;-91
2024/03/22 01:27:07;;;;;;;43.47;40.10;;;;;;;;;;4938659;29;20024;-91
2024/03/22 01:29:33;;;;;;;42.60;39.67;;;;;;;;;;4938596;29;20115;-91
2024/03/22 01:31:59;;;;;;;43.10;39.90;;;;;;;;;;4939086;29;20031;-91
2024/03/22 01:34:26;;;;;;;45.38;42.10;;;;;;;;;;4935624;29;20039;-91
2024/03/22 01:36:52;;;;;;;36.17;33.42;;;;;;;;;;4919940;29;20448;-90
2024/03/22 01:39:22;;;;;;;44.30;41.05;;;;;;;;;;4922988;29;20047;-91
2024/03/22 01:41:48;;;;;;;43.90;40.63;;;;;;;;;;4940800;29;20035;-91
2024/03/22 01:44:15;;;;;;;42.15;39.10;;;;;;;;;;4942862;29;20027;-91
2024/03/22 01:46:45;;;;;;;44.45;41.38;;;;;;;;;;4939353;29;20485;-91
2024/03/22 01:52:15;;;;;;;59.77;55.67;;;;;;;;;;4940746;29;20119;-92
2024/03/22 01:54:44;;;;;;;47.17;43.88;;;;;;;;;;4944220;28;20282;-90
2024/03/22 02:00:14;;;;;;;46.63;43.40;;;;;;;;;;4965737;29;20054;-90
2024/03/22 02:02:41;;;;;;;50.00;46.53;;;;;;;;;;4942318;29;20027;-92
2024/03/22 02:08:08;;;;;;;55.17;51.55;;;;;;;;;;4959277;29;20042;-93
2024/03/22 02:10:44;;;;;;;;;;;;;;;;;;;;;
2024/03/22 02:13:10;;;;;;;55.70;51.72;;;;;;;;;;4959103;29;20468;-91
2024/03/22 02:21:59;;;;;;;51.85;47.85;;;;;;;;;;4941762;29;20144;-92
2024/03/22 02:24:31;;;;;;;58.53;54.30;;;;;;;;;;4941733;29;20043;-91
2024/03/22 02:27:06;;;;;;;57.05;52.85;;;;;;;;;;4942033;29;20032;-92
2024/03/22 02:29:33;;;;;;;51.65;48.00;;;;;;;;;;4938535;29;20074;-92
2024/03/22 02:31:59;;;;;;;53.55;49.72;;;;;;;;;;4923000;29;20540;-92
2024/03/22 02:34:25;;;;;;;60.30;56.10;;;;;;;;;;4922644;29;20024;-93
2024/03/22 02:36:51;;;;;;;50.35;46.70;;;;;;;;;;4923194;29;20023;-91
2024/03/22 02:39:17;;;;;;;64.13;59.72;;;;;;;;;;4922687;29;20052;-91
2024/03/22 02:41:43;;;;;;;54.78;50.80;;;;;;;;;;4923601;29;20031;-91
2024/03/22 02:44:09;;;;;;;54.17;50.05;;;;;;;;;;4922881;29;20032;-93
2024/03/22 02:46:35;;;;;;;71.80;67.10;;;;;;;;;;4929934;29;20110;-91
2024/03/22 02:49:01;;;;;;;63.13;58.25;;;;;;;;;;4941049;29;20032;-91
2024/03/22 02:51:27;;;;;;;49.05;45.03;;;;;;;;;;4941784;29;20026;-92
2024/03/22 02:53:53;;;;;;;56.85;52.50;;;;;;;;;;4941688;29;20035;-92
2024/03/22 02:56:20;;;;;;;51.08;46.92;;;;;;;;;;4947748;29;20120;-92
2024/03/22 02:58:47;;;;;;;52.42;48.38;;;;;;;;;;4945490;29;20036;-92
2024/03/22 03:01:13;;;;;;;45.67;42.03;;;;;;;;;;4941635;29;20034;-93
2024/03/22 03:03:40;;;;;;;52.63;48.45;;;;;;;;;;4941201;29;20019;-91
2024/03/22 03:06:06;;;;;;;53.03;48.65;;;;;;;;;;4940870;29;20173;-92
2024/03/22 03:08:32;;;;;;;58.08;53.35;;;;;;;;;;4937783;29;20086;-93
2024/03/22 03:10:58;;;;;;;54.67;50.13;;;;;;;;;;4936709;29;20129;-92
2024/03/22 03:13:25;;;;;;;49.75;45.50;;;;;;;;;;4940836;29;20027;-92
2024/03/22 03:15:51;;;;;;;49.40;45.67;;;;;;;;;;4941450;29;20436;-93
2024/03/22 03:18:17;;;;;;;52.40;47.95;;;;;;;;;;4940723;29;20058;-92
2024/03/22 03:20:48;;;;;;;55.42;51.33;;;;;;;;;;4940866;29;20067;-92
2024/03/22 03:23:14;;;;;;;61.88;57.25;;;;;;;;;;4937824;29;20488;-92
2024/03/22 03:25:40;;;;;;;46.30;42.05;;;;;;;;;;4922288;29;20067;-93
2024/03/22 03:28:08;;;;;;;50.15;46.00;;;;;;;;;;4921835;29;20135;-92
2024/03/22 03:30:35;;;;;;;58.42;53.80;;;;;;;;;;4922183;29;20024;-91
2024/03/22 03:33:01;;;;;;;52.50;48.08;;;;;;;;;;4921547;29;20464;-92
2024/03/22 03:35:29;;;;;;;48.45;44.15;;;;;;;;;;4921895;29;20106;-91
2024/03/22 03:37:55;;;;;;;56.95;52.03;;;;;;;;;;4941160;29;20089;-93
2024/03/22 03:40:24;;;;;;;71.45;66.03;;;;;;;;;;4973788;28;20047;-91
2024/03/22 03:42:54;;;;;;;62.13;57.22;;;;;;;;;;4954105;29;20040;-89
2024/03/22 03:45:20;;;;;;;75.82;70.18;;;;;;;;;;4943885;29;20028;-92
2024/03/22 03:47:46;;;;;;;52.83;48.25;;;;;;;;;;4968499;29;20078;-90
2024/03/22 03:50:12;;;;;;;48.10;43.72;;;;;;;;;;4958227;28;20043;-90
2024/03/22 03:52:38;;;;;;;57.75;53.08;;;;;;;;;;4937650;29;20126;-91
2024/03/22 03:55:05;;;;;;;54.08;49.17;;;;;;;;;;4939349;29;20131;-92
2024/03/22 03:57:31;;;;;;;55.20;50.42;;;;;;;;;;4956630;29;20037;-90
2024/03/22 03:59:57;;;;;;;60.58;55.60;;;;;;;;;;4953873;29;20043;-91
2024/03/22 04:02:23;;;;;;;66.05;60.50;;;;;;;;;;4937342;29;20039;-90
2024/03/22 04:04:52;;;;;;;59.45;54.50;;;;;;;;;;4946476;29;20031;-91
2024/03/22 04:07:18;;;;;;;58.38;53.40;;;;;;;;;;4961743;29;20027;-91
2024/03/22 04:09:47;;;;;;;60.70;55.75;;;;;;;;;;4954533;29;20039;-92
2024/03/22 04:12:13;;;;;;;63.80;58.63;;;;;;;;;;4961598;29;20093;-92
2024/03/22 04:14:39;;;;;;;57.70;52.90;;;;;;;;;;4956410;29;20047;-93
2024/03/22 04:17:06;;;;;;;58.47;53.70;;;;;;;;;;4924532;29;20139;-93
2024/03/22 04:19:32;;;;;;;53.33;48.55;;;;;;;;;;4956109;29;20058;-92
2024/03/22 04:21:58;;;;;;;57.28;52.20;;;;;;;;;;4955924;29;20051;-92
2024/03/22 04:24:24;;;;;;;58.33;53.40;;;;;;;;;;4956062;29;20062;-90
2024/03/22 04:26:50;;;;;;;52.15;47.42;;;;;;;;;;4912678;29;20032;-93
2024/03/22 04:29:17;;;;;;;53.13;48.25;;;;;;;;;;4937017;29;20079;-92
2024/03/22 04:31:43;;;;;;;69.32;63.90;;;;;;;;;;4937967;29;20024;-92
2024/03/22 04:34:10;;;;;;;69.18;63.90;;;;;;;;;;4949832;29;20069;-93
2024/03/22 04:36:36;;;;;;;73.05;67.32;;;;;;;;;;4938933;29;20032;-92
2024/03/22 04:39:03;;;;;;;63.13;57.80;;;;;;;;;;4936612;29;20086;-92
2024/03/22 04:41:30;;;;;;;65.13;59.78;;;;;;;;;;4936643;29;20031;-91
2024/03/22 04:43:56;;;;;;;64.15;58.83;;;;;;;;;;4947019;29;20058;-91
2024/03/22 04:46:22;;;;;;;61.42;56.20;;;;;;;;;;4942031;29;20036;-92
2024/03/22 04:51:35;;;;;;;85.45;79.07;;;;;;;;;;4937721;29;20058;-93
2024/03/22 04:54:01;;;;;;;57.40;52.40;;;;;;;;;;4936199;29;20030;-94
2024/03/22 04:56:33;;;;;;;55.85;51.15;;;;;;;;;;4948412;29;20031;-92
2024/03/22 04:59:14;;;;;;;63.17;58.15;;;;;;;;;;4946083;29;20075;-92
2024/03/22 05:01:44;;;;;;;69.00;63.38;;;;;;;;;;4960366;29;20020;-90
2024/03/22 05:04:10;;;;;;;65.22;59.95;;;;;;;;;;4954928;29;20035;-91
2024/03/22 05:06:52;;;;;;;62.75;57.30;;;;;;;;;;4945521;29;20043;-90
2024/03/22 05:09:32;;;;;;;63.80;58.65;;;;;;;;;;4958173;29;20104;-91
2024/03/22 05:11:59;;;;;;;79.13;72.75;;;;;;;;;;4938715;29;20111;-92
2024/03/22 05:14:25;;;;;;;87.15;80.63;;;;;;;;;;4941290;29;20031;-93
2024/03/22 05:16:52;;;;;;;56.30;51.58;;;;;;;;;;4924394;29;20027;-92
2024/03/22 05:19:19;;;;;;;72.70;67.00;;;;;;;;;;4942533;29;20047;-92
2024/03/22 05:21:45;;;;;;;72.15;66.50;;;;;;;;;;4959844;29;20034;-92
2024/03/22 05:24:11;;;;;;;61.83;56.67;;;;;;;;;;4973223;28;20015;-90
2024/03/22 05:26:39;;;;;;;83.93;77.60;;;;;;;;;;4971764;29;20035;-90
2024/03/22 05:29:06;;;;;;;76.97;71.10;;;;;;;;;;4964171;29;20126;-91
2024/03/22 05:31:32;;;;;;;66.15;60.83;;;;;;;;;;4949021;29;20070;-90
2024/03/22 05:33:58;;;;;;;69.32;63.85;;;;;;;;;;4948205;29;20485;-91
2024/03/22 05:36:24;;;;;;;64.53;59.20;;;;;;;;;;4962920;29;20087;-90
2024/03/22 05:38:50;;;;;;;60.35;55.33;;;;;;;;;;4960426;28;20061;-91
2024/03/22 05:41:16;;;;;;;72.63;66.80;;;;;;;;;;4960464;29;20086;-90
2024/03/22 05:43:42;;;;;;;65.72;60.47;;;;;;;;;;4966166;29;20038;-90
2024/03/22 05:46:08;;;;;;;60.10;55.17;;;;;;;;;;4959852;29;20046;-91
2024/03/22 05:48:42;;;;;;;59.13;54.25;;;;;;;;;;4960858;29;20028;-94
2024/03/22 05:51:11;;;;;;;59.97;54.50;;;;;;;;;;4963217;29;20140;-93
2024/03/22 05:53:39;;;;;;;73.63;67.60;;;;;;;;;;4960799;29;20123;-92
2024/03/22 05:56:14;;;;;;;72.47;67.00;;;;;;;;;;4960912;29;20026;-93
2024/03/22 05:58:45;;;;;;;67.15;61.80;;;;;;;;;;4961783;29;20027;-95
2024/03/22 06:01:11;;;;;;;76.78;70.80;;;;;;;;;;4948153;29;20389;-94
2024/03/22 06:03:42;;;;;;;76.70;70.78;;;;;;;;;;4961445;29;20027;-96
2024/03/22 06:06:08;;;;;;;74.50;68.53;;;;;;;;;;4958971;29;20511;-89
2024/03/22 06:08:39;;;;;;;73.13;67.63;;;;;;;;;;4951814;29;20053;-89
2024/03/22 06:11:05;;;;;;;91.22;84.80;;;;;;;;;;4938462;29;20027;-91
2024/03/22 06:13:32;;;;;;;114.88;106.97;;;;;;;;;;4939778;29;20055;-91
2024/03/22 06:15:58;;;;;;;105.63;98.50;;;;;;;;;;4940779;29;20035;-91
2024/03/22 06:18:24;;;;;;;110.70;103.35;;;;;;;;;;4958136;29;20031;-91
2024/03/22 06:20:50;;;;;;;115.78;108.15;;;;;;;;;;4959368;29;20035;-91
2024/03/22 06:23:17;;;;;;;97.78;91.10;;;;;;;;;;4949227;29;20087;-95
2024/03/22 06:25:51;;;;;;;117.07;109.15;;;;;;;;;;4940029;29;20066;-96
2024/03/22 06:28:17;;;;;;;93.13;86.78;;;;;;;;;;4942180;29;20027;-93
2024/03/22 06:30:43;;;;;;;101.05;94.10;;;;;;;;;;4938493;29;20028;-93
2024/03/22 06:33:50;;;;;;;82.03;76.30;;;;;;;;;;4935445;29;20065;-93
2024/03/22 06:36:29;;;;;;;93.43;86.93;;;;;;;;;;4946038;29;20106;-94
2024/03/22 06:39:18;;;;;;;76.55;70.95;;;;;;;;;;4894291;29;20058;-94
2024/03/22 06:44:57;;;;;;;75.30;69.78;;;;;;;;;;4898439;29;20118;-93
2024/03/22 06:47:37;;;;;;;75.43;70.15;;;;;;;;;;4897811;29;20032;-90
2024/03/22 06:50:10;;;;;;;79.68;74.05;;;;;;;;;;4907343;29;20033;-89
2024/03/22 06:52:37;;;;;;;65.18;60.28;;;;;;;;;;4886432;29;20071;-90
2024/03/22 06:55:33;;;;;;;60.65;55.55;;;;;;;;;;4902669;29;20051;-90
2024/03/22 06:58:02;;;;;;;54.83;50.63;;;;;;;;;;4915416;29;20046;-88
2024/03/22 07:03:55;;;;;;;57.45;53.03;;;;;;;;;;4951212;23;20113;-90
2024/03/22 07:12:38;;;;;;;48.92;44.92;;;;;;;;;;4959903;29;20066;-91
2024/03/22 07:15:32;;;;;;;51.22;47.13;;;;;;;;;;4955768;28;20039;-93
2024/03/22 07:18:06;;;;;;;51.70;47.42;;;;;;;;;;4973699;28;20033;-91
2024/03/22 07:26:40;;;;;;;49.00;44.97;;;;;;;;;;4957657;29;20543;-90
2024/03/22 07:29:06;;;;;;;59.15;54.58;;;;;;;;;;4941465;29;20421;-90
2024/03/22 07:31:32;;;;;;;62.75;57.80;;;;;;;;;;4924775;29;20031;-90
2024/03/22 07:34:11;;;;;;;61.33;56.65;;;;;;;;;;4940730;29;20019;-90
2024/03/22 07:36:40;;;;;;;68.20;63.03;;;;;;;;;;4949107;28;20031;-91
2024/03/22 07:39:07;;;;;;;63.90;58.83;;;;;;;;;;4941091;29;20035;-92
2024/03/22 07:41:34;;;;;;;64.47;59.67;;;;;;;;;;4945035;29;20028;-91
2024/03/22 07:44:05;;;;;;;64.72;59.92;;;;;;;;;;4943009;29;20500;-91
2024/03/22 07:46:31;;;;;;;68.90;63.75;;;;;;;;;;4941449;29;20035;-90
2024/03/22 07:48:57;;;;;;;60.40;55.92;;;;;;;;;;4936535;29;20059;-89
2024/03/22 07:54:32;;;;;;;72.72;67.45;;;;;;;;;;4981891;23;20066;-90
2024/03/22 07:56:58;;;;;;;65.30;60.45;;;;;;;;;;4940421;29;20031;-92
2024/03/22 07:59:25;;;;;;;61.30;56.78;;;;;;;;;;4950095;28;20411;-90
2024/03/22 08:01:51;;;;;;;61.13;56.78;;;;;;;;;;4959645;28;20034;-89
2024/03/22 08:04:18;;;;;;;62.33;57.75;;;;;;;;;;4971272;28;20027;-92
2024/03/22 08:06:47;;;;;;;52.92;49.05;;;;;;;;;;4961067;28;20039;-90
2024/03/22 08:09:19;;;;;;;55.25;50.92;;;;;;;;;;4959115;28;20421;-91
2024/03/22 08:12:00;;;;;;;60.83;56.27;;;;;;;;;;4950994;29;20059;-89
2024/03/22 08:14:29;;;;;;;61.42;56.72;;;;;;;;;;4950608;28;20103;-90
2024/03/22 08:16:59;;;;;;;68.55;63.53;;;;;;;;;;4963467;28;20034;-93
2024/03/22 08:19:32;;;;;;;72.95;67.57;;;;;;;;;;4977876;28;20043;-91
2024/03/22 08:21:58;;;;;;;69.22;63.88;;;;;;;;;;4947689;29;20031;-90
2024/03/22 08:24:32;;;;;;;75.30;69.45;;;;;;;;;;4940009;29;20039;-92
2024/03/22 08:27:29;;;;;;;70.60;65.07;;;;;;;;;;4954652;28;20185;-93
2024/03/22 08:30:09;;;;;;;68.60;63.33;;;;;;;;;;4945175;28;20046;-92
2024/03/22 08:32:35;;;;;;;64.72;59.88;;;;;;;;;;4927523;29;20495;-94
2024/03/22 08:35:02;;;;;;;71.57;66.20;;;;;;;;;;4957663;28;20123;-89
2024/03/22 08:37:35;;;;;;;69.00;63.83;;;;;;;;;;4962258;28;20503;-94
2024/03/22 08:40:25;;;;;;;70.53;65.15;;;;;;;;;;4932239;28;20042;-91
2024/03/22 09:20:23;;;;;;;61.00;56.50;;;;;;;;;;4839239;29;20134;-92
2024/03/22 09:22:53;;;;;;;59.85;55.45;;;;;;;;;;4799664;29;20046;-95
2024/03/22 09:26:05;;;;;;;67.28;62.22;;;;;;;;;;4860741;29;20080;-92
2024/03/22 09:28:50;;;;;;;;;;;;;;;;;;;;;
2024/03/22 09:31:20;;;;;;;47.97;44.47;;;;;;;;;;4943274;29;20091;-90
2024/03/22 09:33:50;;;;;;;54.15;50.35;;;;;;;;;;4880902;29;20035;-91
2024/03/22 09:36:34;;;;;;;60.72;56.35;;;;;;;;;;4924814;29;20036;-92
2024/03/22 09:39:01;;;;;;;48.83;45.15;;;;;;;;;;4927819;29;20036;-93
2024/03/22 09:41:28;;;;;;;52.08;48.38;;;;;;;;;;4939173;29;20051;-91
2024/03/22 09:52:42;;;;;;;46.92;43.47;;;;;;;;;;4952832;29;20034;-92
2024/03/22 09:55:13;;;;;;;55.28;51.47;;;;;;;;;;4946968;29;20027;-92
2024/03/22 09:57:40;;;;;;;49.00;45.38;;;;;;;;;;4940299;29;20035;-94
2024/03/22 10:00:31;;;;;;;56.08;52.08;;;;;;;;;;4930784;29;20016;-89
2024/03/22 10:03:11;;;;;;;43.90;40.80;;;;;;;;;;4958408;29;20036;-91
2024/03/22 10:06:08;;;;;;;48.65;45.05;;;;;;;;;;4952186;29;20039;-92
2024/03/22 10:08:51;;;;;;;46.53;43.03;;;;;;;;;;4955775;28;20032;-89
2024/03/22 10:11:30;;;;;;;54.83;51.08;;;;;;;;;;4917132;29;20036;-93
2024/03/22 10:14:03;;;;;;;48.63;45.22;;;;;;;;;;4917773;29;20036;-90
2024/03/22 10:16:35;;;;;;;54.58;50.72;;;;;;;;;;4942116;29;20095;-90
2024/03/22 10:19:06;;;;;;;52.90;49.05;;;;;;;;;;4940729;29;20139;-91
2024/03/22 10:21:32;;;;;;;49.50;45.90;;;;;;;;;;4944788;29;20408;-92
2024/03/22 10:26:47;;;;;;;56.13;52.03;;;;;;;;;;4929330;29;20284;-92
2024/03/22 10:29:18;;;;;;;48.13;44.65;;;;;;;;;;4942593;28;20044;-92
2024/03/22 10:31:47;;;;;;;48.67;45.10;;;;;;;;;;4940691;29;20447;-93
2024/03/22 10:34:31;;;;;;;47.38;44.08;;;;;;;;;;5194381;23;20065;-90
2024/03/22 10:46:15;;;;;;;41.05;38.15;;;;;;;;;;4975368;28;20106;-91
2024/03/22 10:49:22;;;;;;;49.08;45.78;;;;;;;;;;4956436;28;20118;-91
2024/03/22 10:51:57;;;;;;;49.15;45.80;;;;;;;;;;4958290;28;20124;-92
2024/03/22 10:57:27;;;;;;;42.38;39.47;;;;;;;;;;4963850;29;20527;-91
2024/03/22 10:59:59;;;;;;;43.53;40.55;;;;;;;;;;4946788;29;20059;-96
2024/03/22 11:05:55;;;;;;;48.53;45.25;;;;;;;;;;4908569;29;20427;-92
2024/03/22 11:08:28;;;;;;;45.30;42.28;;;;;;;;;;4902834;29;20037;-90
2024/03/22 11:11:11;;;;;;;41.20;38.40;;;;;;;;;;4895552;29;20045;-90
2024/03/22 11:13:40;;;;;;;47.53;44.40;;;;;;;;;;4904485;29;20533;-90
2024/03/22 11:16:09;;;;;;;44.33;41.10;;;;;;;;;;4930620;29;20327;-92
2024/03/22 11:18:36;;;;;;;43.00;39.90;;;;;;;;;;4905997;29;20032;-92
2024/03/22 11:21:08;;;;;;;48.45;45.28;;;;;;;;;;4906920;29;20064;-94
2024/03/22 11:23:59;;;;;;;48.92;45.72;;;;;;;;;;4962571;28;20365;-91
2024/03/22 11:26:28;;;;;;;52.38;48.88;;;;;;;;;;4942873;29;20071;-96
2024/03/22 11:28:54;;;;;;;44.85;41.72;;;;;;;;;;4980351;28;20030;-91
2024/03/22 11:31:27;;;;;;;50.33;46.88;;;;;;;;;;4970970;29;20103;-94
2024/03/22 11:34:01;;;;;;;42.67;39.80;;;;;;;;;;4967119;29;20054;-91
2024/03/22 11:36:28;;;;;;;40.55;37.72;;;;;;;;;;4966296;29;20536;-91
2024/03/22 11:38:57;;;;;;;38.55;35.88;;;;;;;;;;4966352;29;20040;-95
2024/03/22 11:41:31;;;;;;;40.83;38.17;;;;;;;;;;4970520;28;20388;-93
2024/03/22 11:44:05;;;;;;;39.65;37.03;;;;;;;;;;4964363;28;20027;-91
2024/03/22 11:46:41;;;;;;;44.35;41.38;;;;;;;;;;4971500;28;20058;-90
2024/03/22 11:49:22;;;;;;;38.90;36.30;;;;;;;;;;4988668;28;20041;-94
2024/03/22 11:54:53;;;;;;;39.47;36.85;;;;;;;;;;4982083;28;20038;-90
2024/03/22 12:00:25;;;;;;;42.45;39.65;;;;;;;;;;4972196;28;20111;-91
2024/03/22 12:02:56;;;;;;;41.92;38.65;;;;;;;;;;4972465;28;20027;-90
2024/03/22 12:05:24;;;;;;;40.95;38.20;;;;;;;;;;4972841;28;20047;-90
2024/03/22 12:07:55;;;;;;;32.58;30.33;;;;;;;;;;4996866;28;20057;-96
2024/03/22 12:10:21;;;;;;;36.17;33.88;;;;;;;;;;4984138;28;20030;-91
2024/03/22 12:12:48;;;;;;;38.15;35.78;;;;;;;;;;4984391;28;20030;-92
2024/03/22 12:15:16;;;;;;;32.40;30.23;;;;;;;;;;4993196;28;20049;-89
2024/03/22 12:18:04;;;;;;;33.13;30.92;;;;;;;;;;4976448;28;20069;-89
2024/03/22 12:20:42;;;;;;;35.00;32.80;;;;;;;;;;4963481;28;20035;-93
2024/03/22 12:23:12;;;;;;;30.70;28.80;;;;;;;;;;4965028;28;20035;-92
2024/03/22 12:25:38;;;;;;;33.75;31.52;;;;;;;;;;4969444;28;20034;-93
2024/03/22 12:28:14;;;;;;;35.22;32.90;;;;;;;;;;4987498;28;20041;-93
2024/03/22 12:30:46;;;;;;;30.13;28.13;;;;;;;;;;4972517;28;20043;-93
2024/03/22 12:33:36;;;;;;;37.35;34.97;;;;;;;;;;4985209;28;20127;-92
2024/03/22 12:36:21;;;;;;;34.00;31.65;;;;;;;;;;4969393;28;20142;-95
2024/03/22 12:38:48;;;;;;;35.63;32.90;;;;;;;;;;4986505;28;20025;-92
2024/03/22 12:41:20;;;;;;;34.83;32.65;;;;;;;;;;4967024;28;20035;-93
2024/03/22 12:43:46;;;;;;;36.33;34.03;;;;;;;;;;4990520;23;20055;-92
2024/03/22 12:46:22;;;;;;;36.83;34.47;;;;;;;;;;4954552;28;20030;-90
2024/03/22 12:49:17;;;;;;;35.70;33.38;;;;;;;;;;4952548;29;20551;-92
2024/03/22 12:57:50;;;;;;;40.00;37.45;;;;;;;;;;4957838;29;20377;-94
2024/03/22 13:00:25;;;;;;;30.63;28.73;;;;;;;;;;4947115;28;20413;-90
2024/03/22 13:03:03;;;;;;;33.00;30.80;;;;;;;;;;4966470;28;20061;-89
2024/03/22 13:05:35;;;;;;;28.73;26.90;;;;;;;;;;4979657;28;20025;-90
2024/03/22 13:08:04;;;;;;;33.77;31.43;;;;;;;;;;4968719;28;20030;-90
2024/03/22 13:10:43;;;;;;;33.65;31.42;;;;;;;;;;4948737;29;20044;-94
2024/03/22 13:16:57;;;;;;;33.17;30.98;;;;;;;;;;4855151;29;20066;-91
2024/03/22 13:19:50;;;;;;;35.65;33.40;;;;;;;;;;4863067;29;20038;-94
2024/03/22 13:22:21;;;;;;;36.40;34.20;;;;;;;;;;4868334;29;20041;-94
2024/03/22 13:24:56;;;;;;;36.45;34.22;;;;;;;;;;4922773;28;20484;-93
2024/03/22 13:27:26;;;;;;;36.33;33.78;;;;;;;;;;4980205;28;20019;-94
2024/03/22 13:29:52;;;;;;;37.28;34.78;;;;;;;;;;4944521;28;20028;-92
2024/03/22 13:32:22;;;;;;;27.77;26.00;;;;;;;;;;4947825;29;20058;-95
2024/03/22 13:34:50;;;;;;;34.90;32.65;;;;;;;;;;4942657;28;20058;-94
2024/03/22 13:37:16;;;;;;;32.70;30.35;;;;;;;;;;4948647;29;20161;-93
2024/03/22 13:39:42;;;;;;;34.45;32.25;;;;;;;;;;4950068;29;20051;-93
2024/03/22 13:42:12;;;;;;;33.72;31.65;;;;;;;;;;4944325;29;20027;-95
2024/03/22 13:44:52;;;;;;;38.47;35.95;;;;;;;;;;4945516;29;20126;-93
2024/03/22 13:47:37;;;;;;;32.65;30.45;;;;;;;;;;4945213;29;20083;-96
2024/03/22 13:50:09;;;;;;;33.10;30.80;;;;;;;;;;4959182;29;20041;-91
2024/03/22 13:52:35;;;;;;;32.55;30.52;;;;;;;;;;4960907;29;20027;-91
2024/03/22 13:55:32;;;;;;;;;;;;;;;;;;;;;
2024/03/22 13:58:02;;;;;;;37.25;34.75;;;;;;;;;;4979432;28;20055;-91
2024/03/22 14:00:56;;;;;;;35.40;33.00;;;;;;;;;;4955257;29;20043;-92
2024/03/22 14:03:56;;;;;;;;;;;;;;;;;;;;;
2024/03/22 14:13:08;;;;;;;34.38;32.03;;;;;;;;;;4838638;29;20031;-95
2024/03/22 14:16:09;;;;;;;34.67;32.20;;;;;;;;;;4833207;29;20145;-94
2024/03/22 14:21:30;;;;;;;38.13;35.28;;;;;;;;;;4820642;29;20105;-93
2024/03/22 14:23:57;;;;;;;35.40;33.08;;;;;;;;;;4826901;29;20138;-90
2024/03/22 14:27:10;;;;;;;41.97;39.35;;;;;;;;;;4844233;29;20090;-93
2024/03/22 14:29:25;;;;;;;38.17;35.75;;;;;;;;;;4931543;29;20036;-91
2024/03/22 14:34:50;;;;;;;45.75;42.65;;;;;;;;;;4930466;29;20398;-91
2024/03/22 14:37:25;;;;;;;37.55;34.95;;;;;;;;;;4922602;29;20051;-94
2024/03/22 14:40:27;;;;;;;37.67;35.20;;;;;;;;;;4936370;28;20054;-93
2024/03/22 14:43:24;;;;;;;39.30;36.90;;;;;;;;;;4915593;29;20039;-95
2024/03/22 14:46:28;;;;;;;39.60;37.25;;;;;;;;;;4957840;28;20134;-91
2024/03/22 14:48:55;;;;;;;28.33;26.42;;;;;;;;;;4937804;28;20035;-91
2024/03/22 14:51:35;;;;;;;36.08;33.88;;;;;;;;;;4960611;28;20031;-95
2024/03/22 14:54:04;;;;;;;40.00;37.35;;;;;;;;;;4973891;28;20033;-91
2024/03/22 14:56:30;;;;;;;44.42;41.47;;;;;;;;;;4972438;28;20358;-92
2024/03/22 14:59:09;;;;;;;36.38;33.95;;;;;;;;;;4978526;28;20031;-94
2024/03/22 15:01:36;;;;;;;32.90;30.70;;;;;;;;;;4960952;28;20046;-94
2024/03/22 15:04:29;;;;;;;34.72;32.45;;;;;;;;;;4997177;28;20089;-94
2024/03/22 15:15:54;;;;;;;35.97;33.80;;;;;;;;;;4977448;28;20038;-95
2024/03/22 15:24:19;;;;;;;46.03;42.90;;;;;;;;;;4957855;28;20045;-94
2024/03/22 15:26:55;;;;;;;36.13;33.92;;;;;;;;;;4967813;28;20038;-94
2024/03/22 15:29:22;;;;;;;42.42;39.72;;;;;;;;;;4974655;28;20027;-90
2024/03/22 15:32:15;;;;;;;40.88;37.88;;;;;;;;;;4987347;28;20026;-95
2024/03/22 15:35:47;;;;;;;38.17;35.50;;;;;;;;;;4994006;28;20106;-94
2024/03/22 15:38:48;;;;;;;41.75;39.10;;;;;;;;;;4958247;28;20055;-90
2024/03/22 15:44:09;;;;;;;39.15;36.40;;;;;;;;;;4957702;29;20074;-89
2024/03/22 15:46:51;;;;;;;37.83;35.35;;;;;;;;;;4969762;28;20034;-90
2024/03/22 15:49:26;;;;;;;34.78;32.25;;;;;;;;;;4975272;28;20062;-90
2024/03/22 15:52:05;;;;;;;46.20;43.30;;;;;;;;;;4956896;29;20042;-91
2024/03/22 15:54:36;;;;;;;36.40;33.97;;;;;;;;;;4956947;28;20134;-90
2024/03/22 15:57:27;;;;;;;36.80;34.45;;;;;;;;;;4995932;28;20030;-92
2024/03/22 16:03:19;;;;;;;40.90;38.13;;;;;;;;;;4880788;29;20077;-89
2024/03/22 16:05:55;;;;;;;61.20;55.78;;;;;;;;;;4860524;29;20049;-91
2024/03/22 16:08:25;;;;;;;56.33;51.45;;;;;;;;;;4909757;29;20127;-90
2024/03/22 16:10:51;;;;;;;49.58;45.70;;;;;;;;;;4917262;29;20040;-90
2024/03/22 16:13:17;;;;;;;44.38;41.45;;;;;;;;;;4921649;28;20030;-90
2024/03/22 16:15:47;;;;;;;49.40;46.42;;;;;;;;;;4979907;28;20121;-91
2024/03/22 16:18:15;;;;;;;42.55;39.90;;;;;;;;;;4979102;28;20027;-89
2024/03/22 16:20:43;;;;;;;51.95;48.72;;;;;;;;;;4998471;28;20393;-90
2024/03/22 16:23:09;;;;;;;47.03;43.78;;;;;;;;;;4979466;28;20030;-91
2024/03/22 16:25:37;;;;;;;43.25;39.13;;;;;;;;;;4979625;28;20042;-89
2024/03/22 16:28:06;;;;;;;44.58;41.42;;;;;;;;;;4979573;28;20035;-89
2024/03/22 16:30:32;;;;;;;46.03;42.35;;;;;;;;;;4978359;28;20022;-89
2024/03/22 16:33:02;;;;;;;43.75;40.70;;;;;;;;;;4982019;28;20030;-89
2024/03/22 16:35:28;;;;;;;48.95;45.75;;;;;;;;;;4978237;28;20068;-90
2024/03/22 16:37:55;;;;;;;58.90;54.47;;;;;;;;;;4971260;28;20045;-89
2024/03/22 16:40:21;;;;;;;48.70;45.55;;;;;;;;;;4965317;28;20037;-90
2024/03/22 16:42:50;;;;;;;45.17;42.08;;;;;;;;;;4978113;28;20074;-88
2024/03/22 16:45:17;;;;;;;50.60;46.75;;;;;;;;;;4977778;28;20038;-90
2024/03/22 16:47:47;;;;;;;45.35;42.25;;;;;;;;;;4996297;28;20046;-92
2024/03/22 16:50:13;;;;;;;39.88;37.33;;;;;;;;;;4978157;28;20073;-90
2024/03/22 16:52:41;;;;;;;43.63;40.60;;;;;;;;;;4977140;28;20109;-89
2024/03/22 16:55:11;;;;;;;46.13;42.88;;;;;;;;;;4977635;28;20096;-89
2024/03/22 16:57:40;;;;;;;44.75;42.00;;;;;;;;;;4995550;28;20022;-90
2024/03/22 17:00:08;;;;;;;54.53;50.97;;;;;;;;;;4977454;28;20038;-92
2024/03/22 17:02:34;;;;;;;68.30;62.85;;;;;;;;;;4977604;28;20054;-93
2024/03/22 17:05:00;;;;;;;51.97;47.70;;;;;;;;;;4955800;28;20122;-93
2024/03/22 17:07:41;;;;;;;58.30;54.13;;;;;;;;;;4956212;28;20483;-96
2024/03/22 17:10:17;;;;;;;57.38;52.50;;;;;;;;;;4959827;28;20046;-93
2024/03/22 17:13:07;;;;;;;51.95;47.50;;;;;;;;;;4960181;29;20098;-95
2024/03/22 17:15:39;;;;;;;64.85;58.80;;;;;;;;;;4961555;29;20062;-94
2024/03/22 17:18:06;;;;;;;65.70;60.15;;;;;;;;;;4964060;29;20027;-93
2024/03/22 17:20:51;;;;;;;54.75;50.22;;;;;;;;;;4976637;28;20124;-92
2024/03/22 17:23:17;;;;;;;53.20;48.47;;;;;;;;;;4995496;28;20015;-93